Time;durP1;ratioP1;P1;durP2;ratioP2;P2;SDS_P1;SDS_P2;PMS_P1;PMS_P2;Temp;Humidity;BMP_temperature;BMP_pressure;BME280_temperature;BME280_humidity;BME280_pressure;Samples;Min_cycle;Max_cycle;Signal;HPM_P1;HPM_P2
2023/12/17 06:00:20;;;;;;;17.20;9.23;;;1.80;89.60;;;;;;4993126;23;20237;-75
2023/12/17 06:02:22;;;;;;;17.80;9.98;;;1.90;90.00;;;;;;4116548;28;20062;-79
2023/12/17 06:04:22;;;;;;;15.32;10.00;;;1.70;90.10;;;;;;4116795;28;20054;-78
2023/12/17 06:06:24;;;;;;;15.75;9.73;;;1.70;90.40;;;;;;4116779;28;20538;-77
2023/12/17 06:08:25;;;;;;;15.65;8.93;;;1.70;90.50;;;;;;4114893;28;20070;-80
2023/12/17 06:10:28;;;;;;;15.85;9.80;;;1.60;90.60;;;;;;4125218;28;20042;-81
2023/12/17 06:12:30;;;;;;;15.10;9.02;;;1.70;90.60;;;;;;4132320;28;20097;-79
2023/12/17 06:14:32;;;;;;;15.43;9.60;;;1.70;90.60;;;;;;4117089;28;20046;-79
2023/12/17 06:16:41;;;;;;;15.88;9.10;;;1.70;90.60;;;;;;4116454;28;20057;-79
2023/12/17 06:18:42;;;;;;;15.45;9.25;;;1.80;90.40;;;;;;4116125;28;20126;-80
2023/12/17 06:20:44;;;;;;;15.52;9.38;;;1.80;90.30;;;;;;4116424;28;20515;-80
2023/12/17 06:22:46;;;;;;;14.77;9.13;;;1.80;90.40;;;;;;4115970;28;20046;-78
2023/12/17 06:24:48;;;;;;;14.82;9.35;;;1.80;90.30;;;;;;4105765;28;20046;-81
2023/12/17 06:26:50;;;;;;;60.72;26.38;;;1.80;90.20;;;;;;4101068;29;20544;-79
2023/12/17 06:28:51;;;;;;;28.15;13.80;;;1.80;90.10;;;;;;4100426;29;20508;-79
2023/12/17 06:30:53;;;;;;;16.73;9.18;;;1.90;90.10;;;;;;4114837;28;20535;-81
2023/12/17 06:32:56;;;;;;;14.15;9.07;;;1.90;90.10;;;;;;4116230;28;20046;-77
2023/12/17 06:34:58;;;;;;;13.10;8.93;;;1.90;90.00;;;;;;4115854;28;20046;-79
2023/12/17 06:37:01;;;;;;;18.23;9.27;;;1.90;89.80;;;;;;4115349;28;20062;-80
2023/12/17 06:39:08;;;;;;;14.18;8.95;;;1.90;89.00;;;;;;4115929;28;20078;-81
2023/12/17 06:41:10;;;;;;;15.75;9.18;;;1.80;88.80;;;;;;4115686;28;20058;-80
2023/12/17 06:43:12;;;;;;;16.00;9.02;;;1.80;88.80;;;;;;4116193;28;20051;-80
2023/12/17 06:45:14;;;;;;;14.30;8.73;;;1.80;88.10;;;;;;4116159;28;20138;-80
2023/12/17 06:47:17;;;;;;;14.73;9.23;;;1.80;88.10;;;;;;4116431;28;20452;-81
2023/12/17 06:49:20;;;;;;;15.80;9.45;;;1.80;88.10;;;;;;4116399;28;20189;-82
2023/12/17 06:51:22;;;;;;;15.10;8.68;;;1.80;88.40;;;;;;4116328;28;20101;-79
2023/12/17 06:53:23;;;;;;;15.77;9.13;;;1.80;88.50;;;;;;4116319;28;20098;-79
2023/12/17 06:55:25;;;;;;;14.00;8.57;;;1.90;88.40;;;;;;4115890;28;20055;-81
2023/12/17 06:57:27;;;;;;;15.07;9.30;;;1.90;88.20;;;;;;4115980;28;20117;-78
2023/12/17 06:59:28;;;;;;;13.77;8.27;;;1.90;88.30;;;;;;4115418;28;20098;-77
2023/12/17 07:01:29;;;;;;;15.40;9.68;;;1.80;88.40;;;;;;4115808;28;20126;-82
2023/12/17 07:03:31;;;;;;;13.68;8.65;;;1.90;88.60;;;;;;4109132;28;20058;-80
2023/12/17 07:05:35;;;;;;;13.80;9.15;;;1.80;88.50;;;;;;4110292;28;20451;-81
2023/12/17 07:07:37;;;;;;;14.98;8.80;;;1.90;88.60;;;;;;4115431;28;20105;-79
2023/12/17 07:09:38;;;;;;;14.93;8.93;;;1.90;88.50;;;;;;4114363;28;20106;-79
2023/12/17 07:11:41;;;;;;;15.35;8.75;;;1.90;88.50;;;;;;4115536;28;20058;-77
2023/12/17 07:13:42;;;;;;;13.13;8.70;;;1.90;88.60;;;;;;4116481;28;20058;-80
2023/12/17 07:15:45;;;;;;;12.60;7.97;;;1.90;88.90;;;;;;4114508;28;20094;-75
2023/12/17 07:17:47;;;;;;;13.57;8.23;;;1.90;88.80;;;;;;4112223;28;20051;-74
2023/12/17 07:19:50;;;;;;;12.68;8.35;;;1.90;88.70;;;;;;4115386;28;20047;-75
2023/12/17 07:21:53;;;;;;;14.35;8.30;;;1.90;88.60;;;;;;4099191;29;20094;-76
2023/12/17 07:23:56;;;;;;;13.50;8.55;;;1.90;88.30;;;;;;4108235;28;20050;-75
2023/12/17 07:25:57;;;;;;;14.20;8.77;;;1.90;88.30;;;;;;4115589;28;20050;-81
2023/12/17 07:27:59;;;;;;;13.40;8.45;;;1.90;88.10;;;;;;4115609;28;20094;-81
2023/12/17 07:30:00;;;;;;;13.90;9.05;;;1.90;87.90;;;;;;4114058;28;20476;-80
2023/12/17 07:32:01;;;;;;;14.60;9.30;;;1.90;88.40;;;;;;4119863;28;20097;-80
2023/12/17 07:34:02;;;;;;;12.95;7.82;;;1.90;87.90;;;;;;4146177;28;20050;-78
2023/12/17 07:36:05;;;;;;;15.32;8.95;;;1.90;87.60;;;;;;4128691;28;20164;-79
2023/12/17 07:38:08;;;;;;;14.07;8.73;;;1.90;87.20;;;;;;4119093;28;20050;-75
2023/12/17 07:40:11;;;;;;;13.45;8.80;;;1.80;87.20;;;;;;4131357;28;20054;-75
2023/12/17 07:42:12;;;;;;;16.10;8.68;;;1.80;87.40;;;;;;4131944;28;20047;-75
2023/12/17 07:44:14;;;;;;;12.63;8.43;;;1.80;87.50;;;;;;4130908;28;20054;-74
2023/12/17 07:46:15;;;;;;;17.23;9.68;;;1.70;87.40;;;;;;4131603;28;20058;-77
2023/12/17 07:48:17;;;;;;;14.35;8.40;;;1.70;87.60;;;;;;4116895;28;20058;-77
2023/12/17 07:50:19;;;;;;;13.98;8.90;;;1.70;87.80;;;;;;4117962;28;20062;-75
2023/12/17 07:52:21;;;;;;;14.00;8.52;;;1.70;87.80;;;;;;4131552;28;20097;-81
2023/12/17 07:54:25;;;;;;;15.93;8.80;;;1.70;88.10;;;;;;4120585;28;20135;-73
2023/12/17 07:56:27;;;;;;;15.52;9.80;;;1.70;88.40;;;;;;4118615;28;20121;-76
2023/12/17 07:58:31;;;;;;;20.98;12.82;;;1.80;88.80;;;;;;4126420;28;20137;-76
2023/12/17 08:00:33;;;;;;;18.13;10.40;;;1.80;88.90;;;;;;4118580;28;20050;-78
2023/12/17 08:02:35;;;;;;;16.38;9.82;;;1.80;89.30;;;;;;4118756;28;20054;-79
2023/12/17 08:04:38;;;;;;;15.10;9.13;;;1.90;89.70;;;;;;4134514;28;20078;-77
2023/12/17 08:06:40;;;;;;;13.43;8.15;;;1.90;89.80;;;;;;4134040;28;20073;-80
2023/12/17 08:08:42;;;;;;;14.77;8.88;;;1.90;90.30;;;;;;4134926;28;20042;-77
2023/12/17 08:10:45;;;;;;;12.88;8.50;;;1.90;89.70;;;;;;4134351;28;20104;-81
2023/12/17 08:12:46;;;;;;;16.02;8.50;;;2.00;89.50;;;;;;4134419;28;20104;-77
2023/12/17 08:14:48;;;;;;;13.70;8.52;;;2.00;89.40;;;;;;4133062;28;20435;-78
2023/12/17 08:16:49;;;;;;;14.73;8.35;;;2.00;89.40;;;;;;4133193;28;20074;-73
2023/12/17 08:18:51;;;;;;;12.73;8.25;;;2.00;89.60;;;;;;4133684;28;20170;-76
2023/12/17 08:20:54;;;;;;;14.45;8.07;;;1.90;89.90;;;;;;4134400;28;20058;-80
2023/12/17 08:22:55;;;;;;;13.20;8.27;;;2.10;89.70;;;;;;4124419;28;20547;-76
2023/12/17 08:24:57;;;;;;;13.35;8.45;;;2.10;89.30;;;;;;4118078;28;20094;-78
2023/12/17 08:27:00;;;;;;;13.05;8.23;;;2.20;89.20;;;;;;4119627;28;20452;-81
2023/12/17 08:29:01;;;;;;;13.75;8.40;;;2.20;88.80;;;;;;4133141;28;20061;-80
2023/12/17 08:31:08;;;;;;;13.15;7.88;;;2.30;88.60;;;;;;4118056;28;20050;-80
2023/12/17 08:33:09;;;;;;;12.45;8.25;;;2.30;88.40;;;;;;4117929;28;20055;-80
2023/12/17 08:35:11;;;;;;;12.43;8.02;;;2.40;88.20;;;;;;4118072;28;20043;-81
2023/12/17 08:37:13;;;;;;;16.05;9.50;;;2.40;88.00;;;;;;4120989;28;20108;-80
2023/12/17 08:39:15;;;;;;;17.80;9.77;;;2.40;87.90;;;;;;4119496;28;20097;-80
2023/12/17 08:41:17;;;;;;;17.13;10.48;;;2.40;87.70;;;;;;4128478;28;20042;-76
2023/12/17 08:43:20;;;;;;;17.33;10.80;;;2.50;88.20;;;;;;4126657;28;20050;-79
2023/12/17 08:45:22;;;;;;;15.68;10.35;;;2.50;87.40;;;;;;4124282;28;20053;-76
2023/12/17 08:47:24;;;;;;;17.17;10.90;;;2.50;87.50;;;;;;4111586;28;20050;-78
2023/12/17 08:49:26;;;;;;;18.38;10.98;;;2.50;87.70;;;;;;4117221;28;20082;-81
2023/12/17 08:51:28;;;;;;;15.60;9.45;;;2.50;87.80;;;;;;4117559;28;20051;-81
2023/12/17 08:53:30;;;;;;;17.42;10.65;;;2.50;87.60;;;;;;4116678;28;20081;-80
2023/12/17 08:55:32;;;;;;;15.70;10.52;;;2.50;88.00;;;;;;4117159;28;20038;-80
2023/12/17 08:57:34;;;;;;;17.88;10.90;;;2.50;88.00;;;;;;4117132;28;20051;-79
2023/12/17 08:59:37;;;;;;;17.98;10.57;;;2.50;87.70;;;;;;4113654;28;20105;-78
2023/12/17 09:01:38;;;;;;;15.32;10.05;;;2.60;87.40;;;;;;4116996;28;20101;-79
2023/12/17 09:03:41;;;;;;;16.20;10.38;;;2.60;87.50;;;;;;4116375;28;20059;-79
2023/12/17 09:05:43;;;;;;;16.48;11.20;;;2.60;87.40;;;;;;4116572;28;20046;-76
2023/12/17 09:07:45;;;;;;;17.02;10.82;;;2.70;87.60;;;;;;4116952;28;20197;-79
2023/12/17 09:09:47;;;;;;;17.83;10.90;;;2.70;87.50;;;;;;4117227;28;20125;-77
2023/12/17 09:11:48;;;;;;;17.38;11.20;;;2.80;87.60;;;;;;4117009;28;20525;-78
2023/12/17 09:13:50;;;;;;;16.27;10.65;;;2.80;87.20;;;;;;4117066;28;20121;-81
2023/12/17 09:15:53;;;;;;;15.18;10.07;;;2.80;87.10;;;;;;4116858;28;20555;-81
2023/12/17 09:17:56;;;;;;;17.20;10.40;;;2.80;87.10;;;;;;4116110;28;20465;-74
2023/12/17 09:19:58;;;;;;;16.30;10.90;;;2.80;87.00;;;;;;4117290;28;20097;-81
2023/12/17 09:21:59;;;;;;;16.83;10.35;;;2.90;87.00;;;;;;4112899;28;20106;-79
2023/12/17 09:24:02;;;;;;;16.15;10.70;;;2.90;87.20;;;;;;4109302;28;20046;-78
2023/12/17 09:26:04;;;;;;;18.35;12.55;;;2.80;87.20;;;;;;4116760;28;20054;-81
2023/12/17 09:28:05;;;;;;;17.67;11.45;;;2.90;87.60;;;;;;4116911;28;20117;-80
2023/12/17 09:30:09;;;;;;;16.98;10.25;;;3.00;87.40;;;;;;4117047;28;20058;-82
2023/12/17 09:32:12;;;;;;;17.77;11.38;;;3.00;86.90;;;;;;4116779;28;20496;-80
2023/12/17 09:34:14;;;;;;;16.67;10.55;;;3.00;86.90;;;;;;4116832;28;20046;-80
2023/12/17 09:36:16;;;;;;;18.85;11.40;;;3.10;87.10;;;;;;4116473;28;20477;-81
2023/12/17 09:38:18;;;;;;;15.23;9.68;;;3.10;86.90;;;;;;4116691;28;20082;-78
2023/12/17 09:40:20;;;;;;;16.10;10.25;;;3.10;86.70;;;;;;4116552;28;20058;-77
2023/12/17 09:42:22;;;;;;;14.15;9.15;;;3.10;86.60;;;;;;4116949;28;20102;-79
2023/12/17 09:44:24;;;;;;;15.02;9.55;;;3.10;86.60;;;;;;4116756;28;20058;-79
2023/12/17 09:46:26;;;;;;;16.38;10.25;;;3.20;86.70;;;;;;4116504;28;20109;-79
2023/12/17 09:48:30;;;;;;;17.27;10.38;;;3.20;86.90;;;;;;4113422;28;20451;-76
2023/12/17 09:50:31;;;;;;;16.48;9.73;;;3.20;87.20;;;;;;4116374;28;20039;-79
2023/12/17 09:52:38;;;;;;;14.30;9.95;;;3.20;87.40;;;;;;4116830;28;20059;-80
2023/12/17 09:54:39;;;;;;;15.52;9.30;;;3.30;87.00;;;;;;4116815;28;20046;-80
2023/12/17 09:56:41;;;;;;;15.05;9.68;;;3.30;86.90;;;;;;4105631;28;20054;-80
2023/12/17 09:58:43;;;;;;;16.25;10.02;;;3.30;86.70;;;;;;4107991;28;20093;-81
2023/12/17 10:00:45;;;;;;;15.60;9.93;;;3.40;86.50;;;;;;4116335;28;20047;-82
2023/12/17 10:02:45;;;;;;;15.73;9.65;;;3.40;86.40;;;;;;4116136;28;20361;-79
2023/12/17 10:04:49;;;;;;;15.13;10.20;;;3.40;86.30;;;;;;4116269;28;20182;-81
2023/12/17 10:06:50;;;;;;;17.63;9.80;;;3.40;86.40;;;;;;4115874;28;20467;-75
2023/12/17 10:08:56;;;;;;;14.50;10.23;;;3.50;86.50;;;;;;4115318;28;20082;-78
2023/12/17 10:10:58;;;;;;;15.70;10.75;;;3.50;86.50;;;;;;4116030;28;20047;-81
2023/12/17 10:13:00;;;;;;;15.90;9.95;;;3.60;87.10;;;;;;4114874;28;20109;-82
2023/12/17 10:15:02;;;;;;;16.02;11.10;;;3.60;87.30;;;;;;4115761;28;20129;-81
2023/12/17 10:17:04;;;;;;;17.27;11.38;;;3.70;86.60;;;;;;4115802;28;20054;-80
2023/12/17 10:19:05;;;;;;;17.73;11.30;;;3.70;86.90;;;;;;4115901;28;20055;-81
2023/12/17 10:21:10;;;;;;;15.55;10.30;;;3.70;86.70;;;;;;4115951;28;20063;-78
2023/12/17 10:23:11;;;;;;;17.42;10.77;;;3.80;87.00;;;;;;4115930;28;20054;-80
2023/12/17 10:25:23;;;;;;;15.82;10.85;;;3.90;87.40;;;;;;4116434;28;20046;-80
2023/12/17 10:27:27;;;;;;;16.70;10.85;;;3.90;87.00;;;;;;4116074;28;20073;-80
2023/12/17 10:29:29;;;;;;;14.80;9.85;;;3.90;86.60;;;;;;4116200;28;20403;-80
2023/12/17 10:31:32;;;;;;;16.70;10.00;;;3.90;86.70;;;;;;4116084;28;20047;-80
2023/12/17 10:33:38;;;;;;;14.38;10.00;;;4.00;86.60;;;;;;4115665;28;20046;-81
2023/12/17 10:35:42;;;;;;;13.48;9.10;;;4.00;86.80;;;;;;4115933;28;20073;-78
2023/12/17 10:37:46;;;;;;;14.25;8.90;;;4.00;87.00;;;;;;4115590;28;20055;-80
2023/12/17 10:39:50;;;;;;;14.75;9.55;;;4.00;87.00;;;;;;4115923;28;20082;-80
2023/12/17 10:41:53;;;;;;;13.77;8.68;;;4.10;87.30;;;;;;4115987;28;20117;-80
2023/12/17 10:43:57;;;;;;;14.52;9.80;;;4.20;87.00;;;;;;4115539;28;20138;-81
2023/12/17 10:46:00;;;;;;;16.20;10.02;;;4.20;86.70;;;;;;4115462;28;20456;-81
2023/12/17 10:48:03;;;;;;;13.52;9.52;;;4.30;86.60;;;;;;4115606;28;20050;-82
2023/12/17 10:50:07;;;;;;;13.68;9.23;;;4.30;86.60;;;;;;4115446;28;20134;-81
2023/12/17 10:52:08;;;;;;;16.55;10.80;;;4.30;86.40;;;;;;4116883;28;20111;-79
2023/12/17 10:54:11;;;;;;;14.52;9.50;;;4.40;86.50;;;;;;4115521;28;20492;-81
2023/12/17 10:56:14;;;;;;;15.73;10.32;;;4.50;86.40;;;;;;4115404;28;20142;-80
2023/12/17 10:58:20;;;;;;;17.35;11.40;;;4.50;86.50;;;;;;4115444;28;20049;-81
2023/12/17 11:00:27;;;;;;;18.62;11.04;;;4.50;86.50;;;;;;4079791;28;1037472;-80
2023/12/17 11:02:29;;;;;;;15.15;10.57;;;4.60;86.50;;;;;;4116191;28;20082;-81
2023/12/17 11:04:31;;;;;;;14.98;11.13;;;4.60;86.10;;;;;;4116114;28;20057;-81
2023/12/17 11:06:33;;;;;;;14.75;10.68;;;4.70;86.10;;;;;;4116061;28;20113;-80
2023/12/17 11:08:37;;;;;;;16.80;11.77;;;4.70;86.20;;;;;;4116014;28;20054;-81
2023/12/17 11:10:40;;;;;;;27.45;17.83;;;4.80;86.30;;;;;;4116112;28;20043;-81
2023/12/17 11:12:42;;;;;;;18.05;12.48;;;4.80;86.10;;;;;;4116122;28;20459;-81
2023/12/17 11:14:45;;;;;;;13.70;9.13;;;4.90;86.30;;;;;;4116060;28;20480;-80
2023/12/17 11:16:47;;;;;;;10.93;6.90;;;4.90;85.00;;;;;;4116004;28;20050;-81
2023/12/17 11:18:49;;;;;;;10.60;6.80;;;5.00;84.20;;;;;;4116004;28;20050;-80
2023/12/17 11:20:53;;;;;;;10.07;6.97;;;5.00;83.20;;;;;;4115993;28;20453;-81
2023/12/17 11:22:55;;;;;;;10.50;7.20;;;5.10;83.10;;;;;;4116289;28;20112;-82
2023/12/17 11:24:58;;;;;;;10.80;7.43;;;5.10;83.10;;;;;;4118917;28;20097;-79
2023/12/17 11:27:00;;;;;;;11.35;7.38;;;5.20;84.10;;;;;;4118930;28;20416;-81
2023/12/17 11:29:02;;;;;;;12.13;7.28;;;5.30;83.20;;;;;;4118936;28;20046;-79
2023/12/17 11:31:05;;;;;;;10.10;7.00;;;5.30;82.80;;;;;;4118984;28;20047;-82
2023/12/17 11:33:07;;;;;;;9.95;6.70;;;5.40;82.50;;;;;;4119001;28;20059;-81
2023/12/17 11:35:10;;;;;;;9.48;6.50;;;5.40;82.40;;;;;;4118799;28;20047;-78
2023/12/17 11:37:13;;;;;;;10.98;6.95;;;5.50;82.40;;;;;;4118830;28;20062;-79
2023/12/17 11:39:14;;;;;;;12.82;7.07;;;5.60;82.50;;;;;;4119016;28;20112;-80
2023/12/17 11:41:16;;;;;;;11.02;6.90;;;5.70;82.40;;;;;;4119514;28;20485;-79
2023/12/17 11:43:23;;;;;;;13.35;7.50;;;5.70;81.80;;;;;;4119240;28;20137;-80
2023/12/17 11:45:33;;;;;;;11.25;7.65;;;5.80;82.10;;;;;;4124554;28;20552;-81
2023/12/17 11:47:35;;;;;;;11.38;7.78;;;5.90;81.80;;;;;;4126003;28;20048;-81
2023/12/17 11:49:36;;;;;;;13.98;8.60;;;6.00;81.90;;;;;;4123954;28;20110;-78
2023/12/17 11:51:38;;;;;;;14.90;8.48;;;6.10;81.50;;;;;;4126948;28;20073;-81
2023/12/17 11:53:42;;;;;;;14.32;9.18;;;6.20;81.10;;;;;;4123227;28;20098;-76
2023/12/17 11:55:45;;;;;;;12.65;8.20;;;6.30;80.70;;;;;;4117784;28;20082;-78
2023/12/17 11:57:47;;;;;;;11.52;7.85;;;6.40;80.80;;;;;;4103789;28;20139;-79
2023/12/17 11:59:51;;;;;;;12.35;7.97;;;6.50;80.80;;;;;;4104641;28;20051;-81
2023/12/17 12:01:54;;;;;;;11.10;8.10;;;6.60;80.60;;;;;;4104275;28;20138;-79
2023/12/17 12:03:57;;;;;;;16.38;8.65;;;6.70;80.30;;;;;;4106973;29;20047;-80
2023/12/17 12:06:03;;;;;;;11.95;8.15;;;6.80;79.90;;;;;;4110126;28;20477;-78
2023/12/17 12:08:05;;;;;;;10.82;7.68;;;6.80;78.50;;;;;;4103081;28;20043;-81
2023/12/17 12:10:08;;;;;;;12.65;8.30;;;6.90;78.20;;;;;;4102819;29;20098;-79
2023/12/17 12:12:19;;;;;;;12.55;7.53;;;7.00;78.10;;;;;;4103115;29;20059;-79
2023/12/17 12:14:21;;;;;;;14.25;8.18;;;7.20;78.40;;;;;;4103635;28;20051;-81
2023/12/17 12:16:24;;;;;;;9.98;7.20;;;7.30;77.40;;;;;;4102904;28;20051;-81
2023/12/17 12:18:27;;;;;;;10.88;7.78;;;7.40;76.90;;;;;;4102987;28;20142;-81
2023/12/17 12:20:38;;;;;;;12.63;8.02;;;7.60;76.90;;;;;;4102528;28;20142;-81
2023/12/17 12:22:42;;;;;;;11.10;7.53;;;7.70;75.90;;;;;;4102484;28;20417;-78
2023/12/17 12:24:43;;;;;;;11.60;7.43;;;7.90;76.40;;;;;;4102454;29;20557;-81
2023/12/17 12:26:45;;;;;;;11.68;6.95;;;8.10;74.50;;;;;;4102323;28;20043;-76
2023/12/17 12:28:50;;;;;;;11.32;7.10;;;8.30;73.50;;;;;;4102586;28;20456;-79
2023/12/17 12:30:52;;;;;;;9.18;6.47;;;8.50;72.70;;;;;;4102551;28;20481;-79
2023/12/17 12:33:10;;;;;;;9.35;7.00;;;8.70;71.60;;;;;;4102211;29;20115;-77
2023/12/17 12:35:22;;;;;;;10.38;6.60;;;9.00;70.60;;;;;;4101238;28;20086;-81
2023/12/17 12:37:33;;;;;;;11.40;7.35;;;9.30;69.90;;;;;;4102147;29;20397;-75
2023/12/17 12:39:46;;;;;;;11.52;7.32;;;9.70;68.00;;;;;;4102208;29;20047;-79
2023/12/17 12:41:50;;;;;;;10.95;7.20;;;10.40;66.50;;;;;;4101097;29;20141;-81
2023/12/17 12:43:52;;;;;;;10.65;6.72;;;12.00;63.20;;;;;;4101966;28;20465;-80
2023/12/17 12:45:54;;;;;;;10.43;7.18;;;14.20;56.40;;;;;;4101974;28;20049;-79
2023/12/17 12:47:57;;;;;;;9.48;7.10;;;15.90;52.30;;;;;;4100573;29;20043;-79
2023/12/17 12:49:59;;;;;;;9.82;6.65;;;17.00;49.50;;;;;;4101693;28;20058;-80
2023/12/17 12:52:01;;;;;;;9.90;7.00;;;18.20;46.20;;;;;;4101982;29;20047;-81
2023/12/17 12:54:04;;;;;;;12.85;7.03;;;19.40;43.50;;;;;;4101694;28;20114;-82
2023/12/17 12:56:07;;;;;;;8.77;6.30;;;20.20;41.60;;;;;;4101865;29;20110;-81
2023/12/17 12:58:08;;;;;;;8.82;6.40;;;20.90;39.30;;;;;;4101646;28;20062;-81
2023/12/17 13:00:12;;;;;;;9.05;6.53;;;21.50;38.30;;;;;;4102049;28;20481;-79
2023/12/17 13:02:14;;;;;;;9.23;6.55;;;22.30;36.70;;;;;;4101810;28;20051;-79
2023/12/17 13:04:17;;;;;;;9.77;7.05;;;22.90;34.80;;;;;;4101495;29;20482;-78
2023/12/17 13:06:19;;;;;;;9.95;7.07;;;23.40;33.70;;;;;;4101670;29;20055;-81
2023/12/17 13:08:20;;;;;;;9.82;7.25;;;23.80;33.10;;;;;;4101745;28;20102;-82
2023/12/17 13:10:22;;;;;;;10.85;7.35;;;24.20;32.40;;;;;;4101810;28;20055;-80
2023/12/17 13:12:24;;;;;;;10.20;7.68;;;24.70;31.60;;;;;;4101647;29;20043;-80
2023/12/17 13:14:26;;;;;;;10.02;7.80;;;25.00;31.00;;;;;;4105120;29;20106;-76
2023/12/17 13:16:28;;;;;;;13.30;9.88;;;25.20;30.00;;;;;;4107140;28;20061;-77
2023/12/17 13:18:30;;;;;;;11.05;8.55;;;25.70;29.20;;;;;;4107161;28;20050;-79
2023/12/17 13:20:33;;;;;;;9.90;7.90;;;26.30;29.00;;;;;;4103855;28;20054;-78
2023/12/17 13:22:35;;;;;;;10.02;8.30;;;26.80;28.40;;;;;;4101898;28;20055;-82
2023/12/17 13:24:37;;;;;;;10.52;7.88;;;27.00;28.00;;;;;;4101512;28;20458;-80
2023/12/17 13:26:39;;;;;;;10.18;7.97;;;26.80;27.20;;;;;;4101168;28;20059;-80
2023/12/17 13:28:40;;;;;;;15.20;11.95;;;27.30;27.30;;;;;;4101280;29;20047;-80
2023/12/17 13:30:41;;;;;;;10.18;8.27;;;27.40;26.90;;;;;;4101285;29;20572;-80
2023/12/17 13:32:43;;;;;;;11.15;8.23;;;27.10;26.90;;;;;;4100930;28;20481;-78
2023/12/17 13:34:45;;;;;;;15.95;13.25;;;27.40;26.50;;;;;;4101391;28;20090;-81
2023/12/17 13:36:48;;;;;;;13.80;11.27;;;28.00;25.80;;;;;;4102283;29;20098;-79
2023/12/17 13:38:50;;;;;;;27.80;20.10;;;28.60;25.70;;;;;;4101691;29;20051;-79
2023/12/17 13:40:52;;;;;;;14.98;10.77;;;28.80;25.20;;;;;;4101134;28;20047;-79
2023/12/17 13:42:55;;;;;;;10.07;7.82;;;28.80;25.00;;;;;;4100942;29;20055;-75
2023/12/17 13:44:55;;;;;;;10.35;8.23;;;28.60;25.00;;;;;;4100884;29;20049;-78
2023/12/17 13:46:57;;;;;;;9.07;7.55;;;29.00;24.80;;;;;;4100823;28;20078;-80
2023/12/17 13:48:59;;;;;;;9.35;7.47;;;29.20;24.40;;;;;;4100806;28;20059;-78
2023/12/17 13:51:01;;;;;;;11.00;7.68;;;29.50;24.20;;;;;;4100763;28;20047;-75
2023/12/17 13:53:04;;;;;;;10.27;7.57;;;29.30;23.80;;;;;;4100536;29;20043;-77
2023/12/17 13:55:08;;;;;;;9.27;7.85;;;29.40;24.00;;;;;;4100799;29;20051;-80
2023/12/17 13:57:10;;;;;;;10.40;7.53;;;29.90;23.70;;;;;;4111707;28;20046;-77
2023/12/17 13:59:10;;;;;;;9.95;7.70;;;29.90;23.50;;;;;;4116611;28;20050;-81
2023/12/17 14:01:12;;;;;;;9.50;7.80;;;29.60;23.80;;;;;;4116589;28;20118;-79
2023/12/17 14:03:14;;;;;;;9.80;7.65;;;29.50;23.70;;;;;;4116664;28;20050;-80
2023/12/17 14:05:16;;;;;;;9.70;7.82;;;29.50;23.60;;;;;;4116679;28;20460;-78
2023/12/17 14:07:22;;;;;;;10.32;7.68;;;29.40;23.80;;;;;;4116560;28;20093;-78
2023/12/17 14:09:25;;;;;;;;;;;29.30;23.80;;;;;;4117091;28;20061;-79
2023/12/17 14:11:27;;;;;;;9.68;7.15;;;28.90;23.60;;;;;;4116713;28;20323;-80
2023/12/17 14:13:29;;;;;;;9.05;7.45;;;28.40;24.30;;;;;;4116703;28;20057;-79
2023/12/17 14:15:31;;;;;;;10.18;8.48;;;27.20;24.80;;;;;;4116541;28;20047;-81
2023/12/17 14:17:32;;;;;;;9.63;7.53;;;25.20;26.40;;;;;;4116601;28;20437;-81
2023/12/17 14:19:35;;;;;;;10.85;7.50;;;23.30;28.20;;;;;;4116550;28;20472;-78
2023/12/17 14:21:38;;;;;;;10.40;8.18;;;21.70;30.10;;;;;;4116439;28;20051;-79
2023/12/17 14:23:40;;;;;;;9.98;7.63;;;20.60;32.40;;;;;;4116590;28;20050;-80
2023/12/17 14:25:43;;;;;;;12.27;9.65;;;19.60;34.40;;;;;;4116441;28;20047;-80
2023/12/17 14:27:45;;;;;;;10.00;8.00;;;18.80;35.70;;;;;;4116255;28;20058;-81
2023/12/17 14:29:47;;;;;;;11.25;8.27;;;18.10;37.00;;;;;;4116455;28;20050;-79
2023/12/17 14:31:49;;;;;;;11.32;8.77;;;17.10;38.70;;;;;;4116405;28;20137;-81
2023/12/17 14:33:51;;;;;;;10.55;7.82;;;16.40;40.50;;;;;;4116362;28;20042;-78
2023/12/17 14:35:53;;;;;;;9.63;7.57;;;16.00;41.70;;;;;;4116290;28;20050;-81
2023/12/17 14:37:55;;;;;;;10.35;7.85;;;15.60;42.30;;;;;;4116445;28;20508;-80
2023/12/17 14:39:56;;;;;;;10.20;7.35;;;15.10;43.80;;;;;;4116196;28;20171;-81
2023/12/17 14:42:00;;;;;;;10.68;8.23;;;14.70;44.60;;;;;;4116249;28;20058;-79
2023/12/17 14:44:02;;;;;;;9.88;7.85;;;14.30;45.50;;;;;;4116181;28;20055;-81
2023/12/17 14:46:03;;;;;;;10.82;7.80;;;14.10;46.40;;;;;;4116394;28;20047;-80
2023/12/17 14:48:07;;;;;;;10.88;8.15;;;13.90;47.00;;;;;;4116473;28;20050;-80
2023/12/17 14:50:09;;;;;;;11.13;8.77;;;13.70;47.60;;;;;;4116230;28;20051;-81
2023/12/17 14:52:11;;;;;;;11.40;10.20;;;13.90;48.00;;;;;;4116307;28;20513;-79
2023/12/17 14:54:13;;;;;;;11.02;9.88;;;14.90;46.00;;;;;;4116378;28;20138;-80
2023/12/17 14:56:15;;;;;;;12.13;9.23;;;15.90;44.10;;;;;;4116285;28;20098;-81
2023/12/17 14:58:18;;;;;;;12.80;9.95;;;16.40;42.50;;;;;;4117173;28;20047;-81
2023/12/17 15:00:21;;;;;;;11.90;9.43;;;16.60;42.20;;;;;;4119508;28;20082;-77
2023/12/17 15:02:23;;;;;;;10.25;8.00;;;16.80;41.80;;;;;;4119622;28;20047;-80
2023/12/17 15:04:27;;;;;;;11.73;8.80;;;17.00;41.70;;;;;;4119282;28;20074;-81
2023/12/17 15:06:29;;;;;;;10.85;8.18;;;17.10;41.50;;;;;;4119532;28;20137;-80
2023/12/17 15:08:31;;;;;;;11.07;8.10;;;16.30;42.20;;;;;;4119333;28;20046;-78
2023/12/17 15:10:34;;;;;;;11.15;8.23;;;15.20;44.40;;;;;;4119117;28;20075;-80
2023/12/17 15:12:36;;;;;;;11.25;8.23;;;14.20;46.60;;;;;;4119199;28;20042;-80
2023/12/17 15:14:41;;;;;;;17.25;12.20;;;13.60;48.50;;;;;;4119371;28;20054;-81
2023/12/17 15:16:43;;;;;;;16.83;12.35;;;13.00;49.90;;;;;;4119167;28;20097;-80
2023/12/17 15:18:43;;;;;;;13.93;10.80;;;12.60;51.40;;;;;;4119145;28;20055;-81
2023/12/17 15:20:45;;;;;;;17.88;13.48;;;12.30;52.40;;;;;;4119109;28;20051;-79
2023/12/17 15:22:46;;;;;;;17.95;12.40;;;11.90;53.10;;;;;;4118991;28;20043;-80
2023/12/17 15:24:49;;;;;;;15.43;11.88;;;11.60;54.10;;;;;;4119073;28;20109;-80
2023/12/17 15:26:51;;;;;;;17.45;12.20;;;11.40;54.60;;;;;;4119171;28;20118;-81
2023/12/17 15:28:52;;;;;;;18.25;13.32;;;11.20;55.70;;;;;;4118222;28;20085;-80
2023/12/17 15:30:55;;;;;;;13.95;10.48;;;10.90;56.50;;;;;;4119209;28;20054;-81
2023/12/17 15:32:58;;;;;;;14.52;9.52;;;10.70;57.00;;;;;;4119084;28;20089;-80
2023/12/17 15:35:00;;;;;;;12.90;8.70;;;10.50;57.50;;;;;;4118974;28;20051;-81
2023/12/17 15:37:02;;;;;;;12.07;8.25;;;10.30;58.30;;;;;;4118916;28;20105;-81
2023/12/17 15:39:03;;;;;;;14.82;8.23;;;10.10;59.00;;;;;;4118866;28;20086;-76
2023/12/17 15:41:07;;;;;;;12.07;7.38;;;10.00;59.30;;;;;;4118849;28;20051;-81
2023/12/17 15:43:09;;;;;;;10.82;7.43;;;9.80;60.00;;;;;;4118905;28;20547;-77
2023/12/17 15:45:10;;;;;;;10.82;6.70;;;9.70;60.60;;;;;;4118881;28;20539;-78
2023/12/17 15:47:13;;;;;;;15.55;10.07;;;9.50;61.40;;;;;;4118823;28;20086;-80
2023/12/17 15:49:15;;;;;;;38.22;26.65;;;9.40;62.10;;;;;;4118782;28;20118;-82
2023/12/17 15:51:17;;;;;;;49.92;31.15;;;9.20;62.90;;;;;;4118673;28;20089;-80
2023/12/17 15:53:19;;;;;;;41.60;27.10;;;9.10;63.70;;;;;;4118740;28;20074;-81
2023/12/17 15:55:21;;;;;;;28.70;18.90;;;8.90;64.40;;;;;;4118629;28;20102;-80
2023/12/17 15:57:25;;;;;;;44.15;27.50;;;8.80;64.90;;;;;;4117424;28;20460;-79
2023/12/17 15:59:26;;;;;;;34.13;21.17;;;8.60;65.50;;;;;;4118619;28;20082;-79
2023/12/17 16:01:28;;;;;;;19.05;12.52;;;8.50;66.10;;;;;;4118468;28;20057;-81
2023/12/17 16:03:31;;;;;;;15.43;10.25;;;8.40;66.50;;;;;;4118639;28;20059;-80
2023/12/17 16:05:33;;;;;;;12.82;8.52;;;8.30;66.80;;;;;;4118547;28;20050;-81
2023/12/17 16:07:36;;;;;;;10.30;7.10;;;8.20;67.30;;;;;;4118510;28;20043;-81
2023/12/17 16:09:38;;;;;;;11.15;7.63;;;8.00;67.80;;;;;;4117029;28;20051;-78
2023/12/17 16:11:40;;;;;;;10.80;7.47;;;7.90;68.50;;;;;;4118629;28;20563;-78
2023/12/17 16:13:42;;;;;;;12.07;7.40;;;7.80;69.10;;;;;;4118559;28;20456;-80
2023/12/17 16:15:44;;;;;;;12.05;7.90;;;7.70;69.30;;;;;;4118235;28;20050;-80
2023/12/17 16:17:46;;;;;;;11.80;8.20;;;7.70;69.80;;;;;;4118576;28;20058;-80
2023/12/17 16:19:50;;;;;;;10.75;7.53;;;7.60;70.20;;;;;;4118249;28;20086;-81
2023/12/17 16:21:52;;;;;;;11.55;7.70;;;7.50;70.40;;;;;;4122672;28;20218;-80
2023/12/17 16:23:53;;;;;;;12.60;8.02;;;7.40;70.80;;;;;;4121779;28;20133;-82
2023/12/17 16:25:56;;;;;;;11.40;8.57;;;7.30;71.00;;;;;;4122095;28;20109;-80
2023/12/17 16:27:58;;;;;;;12.73;8.10;;;7.30;71.50;;;;;;4116943;28;20160;-76
2023/12/17 16:29:59;;;;;;;13.73;8.50;;;7.20;71.80;;;;;;4117549;28;20046;-78
2023/12/17 16:32:01;;;;;;;12.93;8.60;;;7.10;72.20;;;;;;4117764;28;20141;-81
2023/12/17 16:34:03;;;;;;;12.57;7.80;;;7.10;72.60;;;;;;4118092;28;20078;-79